createdAt,value
2022-08-27T00:00:35.330Z,20.96
2022-08-27T00:03:03.538Z,21.03
2022-08-27T00:05:31.812Z,21.14
2022-08-27T00:07:58.676Z,21.13
2022-08-27T00:10:27.478Z,20.96
2022-08-27T00:12:56.291Z,20.94
2022-08-27T00:15:25.427Z,20.86
2022-08-27T00:17:53.766Z,20.83
2022-08-27T00:20:23.640Z,20.60
2022-08-27T00:22:50.624Z,20.64
2022-08-27T00:25:17.813Z,20.67
2022-08-27T00:27:44.895Z,20.65
2022-08-27T00:30:14.871Z,20.82
2022-08-27T00:32:43.121Z,20.51
2022-08-27T00:35:11.225Z,20.60
2022-08-27T00:37:39.519Z,20.72
2022-08-27T00:40:08.930Z,20.83
2022-08-27T00:42:35.410Z,20.81
2022-08-27T00:45:03.368Z,20.82
2022-08-27T00:47:34.233Z,20.78
2022-08-27T00:50:05.754Z,20.87
2022-08-27T00:52:43.812Z,20.96
2022-08-27T00:55:27.683Z,20.93
2022-08-27T00:58:25.678Z,21.00
2022-08-27T01:00:52.707Z,20.98
2022-08-27T01:03:19.803Z,20.93
2022-08-27T01:05:48.287Z,20.95
2022-08-27T01:08:23.274Z,21.01
2022-08-27T01:10:51.063Z,21.02
2022-08-27T01:13:20.557Z,21.07
2022-08-27T01:16:09.111Z,21.07
2022-08-27T01:18:37.616Z,21.03
2022-08-27T01:21:21.340Z,20.97
2022-08-27T01:23:53.895Z,21.08
2022-08-27T01:26:21.418Z,21.04
2022-08-27T01:28:48.766Z,21.08
2022-08-27T01:31:15.770Z,21.08
2022-08-27T01:33:55.121Z,21.10
2022-08-27T01:36:22.079Z,21.07
2022-08-27T01:38:48.502Z,21.16
2022-08-27T01:41:15.153Z,21.08
2022-08-27T01:43:42.587Z,21.05
2022-08-27T01:46:09.705Z,20.89
2022-08-27T01:48:37.589Z,20.93
2022-08-27T01:51:04.045Z,20.94
2022-08-27T01:53:30.994Z,20.98
2022-08-27T01:55:57.469Z,20.95
2022-08-27T01:58:28.445Z,20.94
2022-08-27T02:00:58.061Z,20.93
2022-08-27T02:03:25.648Z,20.98
2022-08-27T02:05:52.348Z,21.00
2022-08-27T02:08:19.412Z,21.02
2022-08-27T02:10:48.324Z,21.12
2022-08-27T02:13:15.938Z,21.09
2022-08-27T02:15:43.780Z,21.08
2022-08-27T02:18:12.005Z,20.93
2022-08-27T02:20:45.802Z,21.05
2022-08-27T02:23:12.804Z,21.04
2022-08-27T02:25:40.286Z,21.09
2022-08-27T02:28:07.201Z,21.09
2022-08-27T02:30:35.122Z,21.12
2022-08-27T02:33:02.888Z,21.04
2022-08-27T02:35:30.920Z,20.90
2022-08-27T02:37:58.545Z,20.91
2022-08-27T02:40:26.134Z,21.02
2022-08-27T02:42:53.608Z,20.91
2022-08-27T02:45:20.843Z,20.94
2022-08-27T02:47:48.624Z,20.97
2022-08-27T02:50:16.408Z,20.91
2022-08-27T02:52:45.274Z,20.93
2022-08-27T02:55:14.418Z,20.94
2022-08-27T02:57:44.612Z,20.87
2022-08-27T03:00:13.981Z,20.83
2022-08-27T03:02:40.443Z,20.89
2022-08-27T03:05:09.558Z,21.01
2022-08-27T03:07:37.266Z,20.92
2022-08-27T03:10:05.107Z,20.96
2022-08-27T03:12:32.070Z,20.98
2022-08-27T03:14:58.555Z,20.88
2022-08-27T03:17:43.475Z,20.78
2022-08-27T03:20:12.193Z,20.89
2022-08-27T03:22:40.180Z,21.01
2022-08-27T03:25:07.768Z,20.95
2022-08-27T03:27:34.241Z,20.95
2022-08-27T03:30:05.857Z,20.83
2022-08-27T03:32:32.880Z,20.93
2022-08-27T03:35:00.297Z,20.90
2022-08-27T03:37:26.963Z,20.77
2022-08-27T03:39:53.659Z,20.90
2022-08-27T03:42:20.483Z,20.86
2022-08-27T03:44:47.603Z,20.89
2022-08-27T03:47:14.576Z,20.76
2022-08-27T03:49:41.511Z,20.84
2022-08-27T03:52:08.836Z,20.79
2022-08-27T03:54:37.481Z,20.60
2022-08-27T03:57:05.906Z,20.71
2022-08-27T03:59:33.301Z,20.69
2022-08-27T04:02:01.692Z,20.63
2022-08-27T04:04:28.444Z,20.63
2022-08-27T04:06:58.919Z,20.58
2022-08-27T04:09:25.816Z,20.52
2022-08-27T04:11:53.137Z,20.56
2022-08-27T04:14:25.416Z,20.54
2022-08-27T04:16:54.824Z,20.49
2022-08-27T04:19:26.913Z,20.44
2022-08-27T04:21:54.660Z,20.55
2022-08-27T04:24:21.641Z,20.57
2022-08-27T04:26:48.553Z,20.43
2022-08-27T04:29:14.941Z,20.47
2022-08-27T04:31:41.436Z,20.45
2022-08-27T04:34:07.920Z,20.39
2022-08-27T04:36:34.661Z,20.39
2022-08-27T04:39:03.221Z,20.39
2022-08-27T04:41:33.350Z,20.44
2022-08-27T04:44:04.147Z,20.35
2022-08-27T04:46:33.112Z,20.34
2022-08-27T04:49:10.038Z,20.32
2022-08-27T04:51:38.443Z,20.34
2022-08-27T04:54:09.070Z,20.38
2022-08-27T04:56:37.131Z,20.33
2022-08-27T04:59:06.311Z,20.33
2022-08-27T05:01:32.968Z,20.11
2022-08-27T05:03:59.916Z,20.28
2022-08-27T05:06:27.274Z,20.23
2022-08-27T05:08:55.135Z,20.29
2022-08-27T05:11:23.910Z,20.34
2022-08-27T05:13:50.433Z,20.22
2022-08-27T05:16:20.994Z,20.17
2022-08-27T05:18:50.273Z,20.28
2022-08-27T05:21:23.158Z,20.19
2022-08-27T05:23:50.880Z,19.94
2022-08-27T05:26:18.329Z,19.98
2022-08-27T05:28:44.772Z,19.98
2022-08-27T05:31:13.493Z,20.03
2022-08-27T05:33:41.520Z,20.08
2022-08-27T05:36:15.906Z,20.18
2022-08-27T05:38:43.214Z,20.03
2022-08-27T05:41:13.796Z,20.19
2022-08-27T05:43:41.434Z,20.17
2022-08-27T05:46:12.085Z,20.01
2022-08-27T05:48:40.138Z,20.12
2022-08-27T05:51:09.515Z,20.28
2022-08-27T05:53:36.827Z,20.22
2022-08-27T05:56:03.564Z,20.14
2022-08-27T05:58:48.701Z,20.12
2022-08-27T06:01:20.049Z,20.18
2022-08-27T06:03:46.489Z,20.15
2022-08-27T06:06:12.882Z,20.13
2022-08-27T06:08:39.315Z,20.06
2022-08-27T06:11:07.014Z,20.07
2022-08-27T06:13:35.510Z,20.05
2022-08-27T06:16:08.791Z,20.10
2022-08-27T06:18:37.366Z,20.09
2022-08-27T06:21:04.297Z,20.08
2022-08-27T06:23:30.801Z,20.14
2022-08-27T06:25:58.299Z,19.97
2022-08-27T06:28:29.792Z,19.99
2022-08-27T06:31:11.989Z,20.08
2022-08-27T06:33:40.098Z,20.07
2022-08-27T06:36:10.854Z,20.13
2022-08-27T06:38:38.016Z,20.13
2022-08-27T06:41:07.093Z,20.05
2022-08-27T06:43:43.716Z,20.20
2022-08-27T06:46:14.242Z,20.16
2022-08-27T06:48:41.106Z,20.14
2022-08-27T06:51:09.995Z,20.15
2022-08-27T06:53:37.046Z,20.27
2022-08-27T06:56:05.208Z,20.32
2022-08-27T06:58:31.974Z,20.28
2022-08-27T07:00:58.763Z,20.20
2022-08-27T07:03:25.129Z,20.42
2022-08-27T07:05:51.605Z,20.40
2022-08-27T07:08:18.178Z,20.19
2022-08-27T07:10:45.492Z,20.24
2022-08-27T07:13:12.979Z,20.26
2022-08-27T07:15:39.823Z,20.12
2022-08-27T07:18:07.855Z,20.18
2022-08-27T07:20:41.222Z,20.36
2022-08-27T07:23:11.075Z,20.34
2022-08-27T07:25:41.826Z,20.31
2022-08-27T07:28:08.793Z,20.33
2022-08-27T07:30:37.560Z,20.47
2022-08-27T07:33:05.534Z,20.51
2022-08-27T07:35:32.566Z,20.48
2022-08-27T07:37:59.345Z,20.49
2022-08-27T07:40:26.485Z,20.39
2022-08-27T07:43:11.645Z,20.58
2022-08-27T07:45:46.690Z,20.49
2022-08-27T07:48:13.481Z,20.49
2022-08-27T07:50:39.900Z,20.34
2022-08-27T07:53:07.646Z,20.48
2022-08-27T07:55:38.498Z,20.35
2022-08-27T07:58:05.922Z,20.20
2022-08-27T08:00:37.633Z,20.26
2022-08-27T08:03:04.445Z,20.29
2022-08-27T08:05:31.121Z,20.23
2022-08-27T08:07:58.361Z,20.42
2022-08-27T08:10:25.214Z,20.43
2022-08-27T08:12:51.859Z,20.54
2022-08-27T08:15:19.819Z,20.49
2022-08-27T08:17:46.676Z,20.78
2022-08-27T08:20:24.030Z,20.85
2022-08-27T08:22:57.734Z,20.84
2022-08-27T08:25:24.681Z,20.71
2022-08-27T08:27:51.335Z,20.71
2022-08-27T08:30:18.069Z,20.46
2022-08-27T08:32:45.347Z,20.73
2022-08-27T08:35:12.308Z,20.88
2022-08-27T08:37:38.990Z,20.70
2022-08-27T08:40:06.399Z,20.67
2022-08-27T08:42:39.480Z,20.71
2022-08-27T08:45:08.064Z,20.84
2022-08-27T08:47:49.339Z,20.59
2022-08-27T08:50:23.146Z,20.70
2022-08-27T08:53:09.425Z,20.65
2022-08-27T08:55:48.115Z,20.62
2022-08-27T08:58:44.592Z,20.89
2022-08-27T09:01:14.546Z,20.91
2022-08-27T09:03:47.221Z,21.01
2022-08-27T09:06:25.798Z,20.87
2022-08-27T09:08:52.904Z,20.98
2022-08-27T09:11:24.143Z,20.97
2022-08-27T09:14:24.836Z,20.76
2022-08-27T09:16:56.373Z,20.75
2022-08-27T09:19:24.660Z,20.83
2022-08-27T09:21:59.684Z,20.86
2022-08-27T09:24:34.945Z,20.78
2022-08-27T09:27:01.653Z,20.79
2022-08-27T09:29:29.873Z,20.83
2022-08-27T09:32:09.043Z,20.82
2022-08-27T09:34:41.358Z,20.96
2022-08-27T09:37:23.030Z,20.86
2022-08-27T09:40:23.034Z,20.96
2022-08-27T09:42:56.411Z,20.96
2022-08-27T09:45:28.484Z,21.22
2022-08-27T09:48:07.594Z,21.21
2022-08-27T09:50:46.567Z,21.25
2022-08-27T09:53:35.944Z,21.23
2022-08-27T09:56:04.925Z,21.27
2022-08-27T09:58:46.965Z,21.22
2022-08-27T10:01:20.203Z,21.26
2022-08-27T10:03:47.978Z,21.08
2022-08-27T10:06:14.433Z,21.39
2022-08-27T10:08:49.097Z,21.63
2022-08-27T10:11:23.923Z,21.61
2022-08-27T10:14:03.919Z,21.94
2022-08-27T10:16:33.513Z,21.97
2022-08-27T10:19:19.113Z,21.76
2022-08-27T10:22:00.264Z,22.02
2022-08-27T10:24:51.606Z,22.06
2022-08-27T10:27:24.602Z,22.19
2022-08-27T10:30:10.475Z,22.31
2022-08-27T10:33:10.724Z,22.41
2022-08-27T10:35:47.883Z,22.37
2022-08-27T10:38:42.402Z,22.61
2022-08-27T10:41:22.428Z,22.63
2022-08-27T10:44:17.876Z,22.65
2022-08-27T10:47:02.481Z,22.66
2022-08-27T10:49:56.956Z,22.67
2022-08-27T10:52:38.546Z,22.34
2022-08-27T10:55:21.929Z,22.66
2022-08-27T10:58:07.491Z,22.78
2022-08-27T11:00:46.419Z,22.63
2022-08-27T11:03:20.329Z,22.65
2022-08-27T11:05:50.360Z,22.36
2022-08-27T11:08:41.390Z,22.38
2022-08-27T11:11:57.055Z,22.46
2022-08-27T11:14:00.987Z,22.19
2022-08-27T11:16:37.340Z,22.29
2022-08-27T11:19:23.254Z,22.40
2022-08-27T11:22:12.187Z,22.28
2022-08-27T11:24:51.038Z,22.31
2022-08-27T11:27:23.263Z,22.15
2022-08-27T11:30:00.140Z,21.92
2022-08-27T11:32:55.761Z,22.09
2022-08-27T11:35:34.774Z,22.16
2022-08-27T11:38:17.396Z,22.11
2022-08-27T11:40:55.742Z,22.19
2022-08-27T11:43:26.555Z,22.27
2022-08-27T11:46:25.254Z,22.18
2022-08-27T11:49:01.742Z,22.37
2022-08-27T11:51:37.092Z,22.21
2022-08-27T11:54:10.735Z,22.14
2022-08-27T11:56:43.046Z,22.17
2022-08-27T11:59:20.698Z,22.20
2022-08-27T12:01:48.484Z,22.11
2022-08-27T12:04:35.351Z,22.18
2022-08-27T12:07:04.623Z,22.13
2022-08-27T12:09:58.078Z,22.19
2022-08-27T12:12:44.155Z,22.11
2022-08-27T12:15:18.678Z,22.36
2022-08-27T12:17:52.117Z,22.50
2022-08-27T12:20:25.720Z,22.77
2022-08-27T12:23:44.013Z,22.97
2022-08-27T12:26:25.449Z,23.17
2022-08-27T12:29:24.045Z,23.02
2022-08-27T12:31:54.533Z,23.21
2022-08-27T12:34:25.391Z,23.14
2022-08-27T12:36:54.629Z,23.34
2022-08-27T12:39:28.785Z,23.30
2022-08-27T12:41:56.232Z,23.25
2022-08-27T12:44:28.849Z,23.42
2022-08-27T12:47:04.054Z,23.26
2022-08-27T12:49:41.467Z,23.12
2022-08-27T12:52:52.359Z,23.15
2022-08-27T12:55:49.556Z,23.25
2022-08-27T12:58:43.673Z,23.42
2022-08-27T13:01:13.459Z,23.05
2022-08-27T13:03:47.254Z,23.45
2022-08-27T13:06:33.093Z,23.45
2022-08-27T13:09:03.671Z,23.25
2022-08-27T13:11:44.230Z,23.27
2022-08-27T13:14:14.516Z,23.07
2022-08-27T13:16:52.091Z,22.89
2022-08-27T13:19:51.238Z,22.91
2022-08-27T13:22:29.030Z,23.04
2022-08-27T13:24:56.527Z,23.13
2022-08-27T13:27:29.465Z,23.28
2022-08-27T13:29:58.677Z,23.37
2022-08-27T13:32:29.713Z,23.23
2022-08-27T13:34:58.412Z,23.20
2022-08-27T13:37:34.755Z,23.19
2022-08-27T13:40:01.302Z,22.93
2022-08-27T13:42:27.807Z,23.11
2022-08-27T13:45:02.758Z,22.91
2022-08-27T13:47:30.656Z,22.98
2022-08-27T13:50:12.856Z,23.18
2022-08-27T13:53:02.526Z,23.32
2022-08-27T13:55:32.757Z,23.52
2022-08-27T13:58:00.432Z,23.27
2022-08-27T14:00:31.956Z,23.43
2022-08-27T14:03:00.834Z,23.07
2022-08-27T14:05:31.973Z,23.33
2022-08-27T14:08:12.426Z,23.16
2022-08-27T14:10:47.579Z,22.92
2022-08-27T14:13:17.418Z,22.94
2022-08-27T14:15:47.985Z,22.93
2022-08-27T14:18:48.140Z,22.80
2022-08-27T14:21:13.075Z,22.62
2022-08-27T14:23:39.655Z,22.75
2022-08-27T14:26:07.870Z,22.62
2022-08-27T14:28:34.464Z,22.49
2022-08-27T14:31:00.972Z,22.30
2022-08-27T14:33:27.908Z,22.13
2022-08-27T14:35:54.520Z,22.03
2022-08-27T14:38:23.453Z,22.07
2022-08-27T14:40:54.639Z,22.04
2022-08-27T14:43:22.924Z,21.79
2022-08-27T14:45:51.532Z,21.85
2022-08-27T14:48:28.557Z,21.91
2022-08-27T14:50:57.595Z,21.80
2022-08-27T14:53:24.774Z,21.83
2022-08-27T14:55:52.204Z,21.83
2022-08-27T14:58:21.097Z,21.66
2022-08-27T15:00:49.471Z,21.75
2022-08-27T15:03:15.911Z,21.78
2022-08-27T15:05:43.046Z,21.82
2022-08-27T15:08:12.915Z,21.59
2022-08-27T15:10:40.287Z,21.55
2022-08-27T15:13:06.725Z,21.43
2022-08-27T15:15:34.328Z,21.39
2022-08-27T15:18:00.902Z,21.43
2022-08-27T15:20:27.680Z,21.54
2022-08-27T15:22:56.641Z,21.50
2022-08-27T15:25:24.561Z,21.57
2022-08-27T15:27:51.156Z,21.63
2022-08-27T15:30:23.563Z,21.56
2022-08-27T15:32:50.097Z,21.37
2022-08-27T15:35:20.318Z,21.46
2022-08-27T15:37:47.156Z,21.57
2022-08-27T15:40:16.244Z,21.62
2022-08-27T15:42:42.817Z,21.65
2022-08-27T15:45:11.499Z,21.60
2022-08-27T15:47:38.031Z,21.75
2022-08-27T15:50:05.597Z,21.75
2022-08-27T15:52:40.984Z,21.87
2022-08-27T15:55:18.568Z,21.73
2022-08-27T15:57:46.164Z,21.75
2022-08-27T16:00:13.259Z,21.91
2022-08-27T16:02:42.239Z,21.77
2022-08-27T16:05:11.389Z,21.45
2022-08-27T16:07:37.785Z,21.48
2022-08-27T16:10:05.660Z,21.45
2022-08-27T16:12:32.788Z,21.30
2022-08-27T16:14:59.275Z,21.47
2022-08-27T16:17:26.472Z,21.34
2022-08-27T16:19:53.473Z,21.39
2022-08-27T16:22:20.161Z,21.35
2022-08-27T16:24:48.078Z,21.34
2022-08-27T16:27:15.111Z,21.21
2022-08-27T16:29:42.337Z,21.22
2022-08-27T16:32:14.256Z,21.31
2022-08-27T16:34:41.711Z,21.25
2022-08-27T16:37:08.515Z,21.50
2022-08-27T16:39:40.004Z,21.40
2022-08-27T16:42:10.036Z,21.23
2022-08-27T16:44:37.395Z,21.28
2022-08-27T16:47:04.753Z,21.18
2022-08-27T16:49:50.181Z,21.14
2022-08-27T16:52:16.948Z,21.13
2022-08-27T16:54:43.393Z,21.18
2022-08-27T16:57:09.961Z,20.89
2022-08-27T16:59:36.380Z,21.03
2022-08-27T17:02:02.838Z,20.99
2022-08-27T17:04:38.083Z,20.78
2022-08-27T17:07:08.894Z,20.76
2022-08-27T17:09:37.351Z,20.79
2022-08-27T17:12:05.189Z,20.87
2022-08-27T17:14:37.837Z,21.00
2022-08-27T17:17:06.162Z,20.84
2022-08-27T17:19:34.859Z,20.82
2022-08-27T17:22:03.966Z,20.82
2022-08-27T17:24:30.510Z,20.70
2022-08-27T17:26:57.514Z,20.80
2022-08-27T17:29:26.291Z,20.87
2022-08-27T17:31:53.112Z,20.77
2022-08-27T17:34:26.383Z,20.76
2022-08-27T17:36:57.581Z,20.82
2022-08-27T17:39:28.510Z,20.81
2022-08-27T17:41:56.168Z,20.76
2022-08-27T17:44:28.304Z,20.88
2022-08-27T17:46:57.871Z,20.78
2022-08-27T17:49:25.705Z,20.73
2022-08-27T17:51:59.265Z,20.70
2022-08-27T17:54:32.293Z,20.54
2022-08-27T17:56:59.865Z,20.56
2022-08-27T17:59:26.744Z,20.53
2022-08-27T18:01:53.498Z,20.64
2022-08-27T18:04:20.840Z,20.66
2022-08-27T18:06:47.422Z,20.51
2022-08-27T18:09:16.323Z,20.63
2022-08-27T18:11:45.276Z,20.59
2022-08-27T18:14:12.479Z,20.57
2022-08-27T18:16:44.788Z,20.61
2022-08-27T18:19:11.588Z,20.55
2022-08-27T18:21:46.265Z,20.57
2022-08-27T18:24:13.114Z,20.56
2022-08-27T18:26:39.661Z,20.58
2022-08-27T18:29:06.242Z,20.58
2022-08-27T18:31:32.776Z,20.52
2022-08-27T18:34:00.642Z,20.46
2022-08-27T18:36:29.427Z,20.44
2022-08-27T18:38:55.940Z,20.46
2022-08-27T18:41:24.220Z,20.53
2022-08-27T18:43:51.341Z,20.47
2022-08-27T18:46:18.205Z,20.39
2022-08-27T18:48:44.932Z,20.29
2022-08-27T18:51:15.190Z,20.24
2022-08-27T18:53:44.319Z,20.31
2022-08-27T18:56:12.273Z,20.37
2022-08-27T18:58:43.660Z,20.37
2022-08-27T19:01:14.055Z,20.26
2022-08-27T19:03:47.020Z,20.23
2022-08-27T19:06:16.159Z,20.20
2022-08-27T19:08:43.463Z,20.28
2022-08-27T19:11:13.842Z,20.31
2022-08-27T19:13:41.725Z,20.16
2022-08-27T19:16:14.398Z,20.27
2022-08-27T19:18:41.775Z,20.27
2022-08-27T19:21:08.526Z,20.19
2022-08-27T19:23:36.381Z,20.06
2022-08-27T19:26:03.619Z,20.10
2022-08-27T19:28:39.718Z,20.10
2022-08-27T19:31:09.756Z,20.03
2022-08-27T19:33:36.532Z,20.09
2022-08-27T19:36:04.395Z,20.12
2022-08-27T19:38:31.777Z,20.06
2022-08-27T19:41:02.004Z,20.12
2022-08-27T19:43:36.549Z,19.98
2022-08-27T19:46:05.162Z,20.02
2022-08-27T19:48:35.584Z,20.11
2022-08-27T19:51:02.155Z,20.06
2022-08-27T19:53:39.159Z,20.16
2022-08-27T19:56:09.086Z,20.12
2022-08-27T19:58:36.185Z,20.19
2022-08-27T20:01:07.626Z,20.18
2022-08-27T20:03:35.319Z,20.03
2022-08-27T20:06:02.294Z,19.99
2022-08-27T20:08:34.569Z,20.09
2022-08-27T20:11:01.696Z,19.88
2022-08-27T20:13:33.186Z,19.86
2022-08-27T20:16:02.301Z,19.99
2022-08-27T20:18:29.376Z,19.84
2022-08-27T20:20:59.510Z,19.87
2022-08-27T20:23:32.476Z,19.92
2022-08-27T20:26:01.240Z,19.82
2022-08-27T20:28:39.491Z,19.75
2022-08-27T20:31:09.737Z,19.85
2022-08-27T20:33:36.275Z,19.81
2022-08-27T20:36:02.925Z,19.81
2022-08-27T20:38:30.572Z,19.86
2022-08-27T20:40:57.660Z,19.68
2022-08-27T20:43:24.176Z,19.74
2022-08-27T20:45:50.996Z,19.64
2022-08-27T20:48:17.778Z,19.71
2022-08-27T20:50:47.353Z,19.78
2022-08-27T20:53:13.931Z,19.78
2022-08-27T20:55:40.946Z,19.84
2022-08-27T20:58:28.233Z,19.76
2022-08-27T21:01:00.404Z,19.73
2022-08-27T21:03:29.695Z,19.71
2022-08-27T21:05:56.448Z,19.66
2022-08-27T21:08:23.424Z,19.70
2022-08-27T21:10:56.971Z,19.68
2022-08-27T21:13:25.252Z,19.60
2022-08-27T21:15:54.553Z,19.69
2022-08-27T21:18:29.530Z,19.82
2022-08-27T21:21:06.865Z,19.78
2022-08-27T21:23:35.469Z,19.64
2022-08-27T21:26:04.455Z,19.71
2022-08-27T21:28:31.672Z,19.56
2022-08-27T21:30:58.219Z,19.57
2022-08-27T21:33:24.883Z,19.52
2022-08-27T21:35:52.384Z,19.62
2022-08-27T21:38:19.280Z,19.41
2022-08-27T21:40:48.833Z,19.46
2022-08-27T21:43:15.327Z,19.56
2022-08-27T21:45:43.231Z,19.48
2022-08-27T21:48:12.197Z,19.59
2022-08-27T21:50:40.101Z,19.54
2022-08-27T21:53:06.623Z,19.61
2022-08-27T21:55:33.937Z,19.56
2022-08-27T21:58:01.587Z,19.44
2022-08-27T22:00:32.542Z,19.51
2022-08-27T22:02:59.793Z,19.45
2022-08-27T22:05:26.307Z,19.27
2022-08-27T22:07:52.855Z,19.33
2022-08-27T22:10:19.485Z,19.46
2022-08-27T22:12:46.259Z,19.38
2022-08-27T22:15:12.780Z,19.33
2022-08-27T22:17:39.316Z,19.30
2022-08-27T22:20:08.764Z,19.35
2022-08-27T22:22:35.297Z,19.34
2022-08-27T22:25:01.745Z,19.25
2022-08-27T22:27:28.266Z,19.28
2022-08-27T22:29:54.715Z,19.17
2022-08-27T22:32:21.239Z,19.20
2022-08-27T22:34:47.679Z,19.16
2022-08-27T22:37:14.208Z,19.14
2022-08-27T22:39:40.615Z,19.18
2022-08-27T22:42:07.785Z,19.17
2022-08-27T22:44:34.276Z,19.22
2022-08-27T22:47:00.730Z,19.19
2022-08-27T22:49:27.070Z,19.27
2022-08-27T22:51:53.479Z,19.29
2022-08-27T22:54:19.903Z,19.27
2022-08-27T22:56:46.410Z,19.25
2022-08-27T22:59:12.874Z,19.21
2022-08-27T23:01:39.424Z,19.22
2022-08-27T23:04:06.506Z,19.20
2022-08-27T23:06:33.764Z,19.18
2022-08-27T23:09:00.860Z,19.16
2022-08-27T23:11:31.569Z,19.07
2022-08-27T23:14:01.235Z,19.09
2022-08-27T23:16:28.490Z,19.03
2022-08-27T23:18:54.929Z,19.09
2022-08-27T23:21:21.351Z,19.11
2022-08-27T23:23:47.772Z,19.08
2022-08-27T23:26:32.900Z,19.09
2022-08-27T23:28:59.295Z,19.15
2022-08-27T23:31:25.947Z,18.97
2022-08-27T23:33:53.633Z,19.12
2022-08-27T23:36:21.067Z,19.19
2022-08-27T23:38:47.712Z,19.20
2022-08-27T23:41:17.560Z,19.15
2022-08-27T23:43:44.930Z,19.11
2022-08-27T23:46:12.210Z,19.05
2022-08-27T23:48:39.367Z,18.92
2022-08-27T23:51:07.287Z,19.02
2022-08-27T23:53:34.328Z,19.02
2022-08-27T23:56:00.944Z,18.92
2022-08-27T23:58:28.171Z,19.00
